createdAt,value
2023-01-04T00:00:09.252Z,28.27
2023-01-04T00:02:36.971Z,32.43
2023-01-04T00:05:05.098Z,31.07
2023-01-04T00:07:32.565Z,28.90
2023-01-04T00:10:00.190Z,24.77
2023-01-04T00:12:27.937Z,26.87
2023-01-04T00:14:55.478Z,31.57
2023-01-04T00:17:22.998Z,33.07
2023-01-04T00:19:50.503Z,31.30
2023-01-04T00:22:18.110Z,35.43
2023-01-04T00:24:45.601Z,34.13
2023-01-04T00:27:13.147Z,30.20
2023-01-04T00:29:40.723Z,28.17
2023-01-04T00:32:08.496Z,27.20
2023-01-04T00:34:35.967Z,29.40
2023-01-04T00:37:03.489Z,27.83
2023-01-04T00:39:31.075Z,25.03
2023-01-04T00:42:05.353Z,25.37
2023-01-04T00:44:34.765Z,24.73
2023-01-04T00:47:04.544Z,26.77
2023-01-04T00:49:32.763Z,31.00
2023-01-04T00:52:00.570Z,30.67
2023-01-04T00:54:29.071Z,29.47
2023-01-04T00:56:56.649Z,29.73
2023-01-04T00:59:24.330Z,30.27
2023-01-04T01:01:52.772Z,30.20
2023-01-04T01:04:23.732Z,30.10
2023-01-04T01:06:52.533Z,28.07
2023-01-04T01:09:22.909Z,31.27
2023-01-04T01:11:52.358Z,29.93
2023-01-04T01:14:23.948Z,30.07
2023-01-04T01:16:57.276Z,29.33
2023-01-04T01:19:28.902Z,30.13
2023-01-04T01:21:57.901Z,28.40
2023-01-04T01:24:26.115Z,29.20
2023-01-04T01:26:53.678Z,29.57
2023-01-04T01:29:21.208Z,33.60
2023-01-04T01:31:48.870Z,30.83
2023-01-04T01:34:16.423Z,32.23
2023-01-04T01:36:44.210Z,31.37
2023-01-04T01:39:11.785Z,30.23
2023-01-04T01:41:39.398Z,30.10
2023-01-04T01:44:43.384Z,30.90
2023-01-04T01:47:26.048Z,28.47
2023-01-04T01:49:55.298Z,28.60
2023-01-04T01:52:31.003Z,29.30
2023-01-04T01:55:04.636Z,27.43
2023-01-04T01:57:37.528Z,28.23
2023-01-04T02:00:11.035Z,28.73
2023-01-04T02:02:53.635Z,30.13
2023-01-04T02:05:22.235Z,28.60
2023-01-04T02:07:51.202Z,27.67
2023-01-04T02:10:18.813Z,24.70
2023-01-04T02:12:47.491Z,25.07
2023-01-04T02:15:15.502Z,25.17
2023-01-04T02:17:54.275Z,28.37
2023-01-04T02:20:45.309Z,27.07
2023-01-04T02:24:07.800Z,28.50
2023-01-04T02:27:06.158Z,28.73
2023-01-04T02:29:41.267Z,30.57
2023-01-04T02:32:36.308Z,28.10
2023-01-04T02:35:16.261Z,28.97
2023-01-04T02:38:06.607Z,30.97
2023-01-04T02:41:04.085Z,30.27
2023-01-04T02:43:56.596Z,26.07
2023-01-04T02:46:42.901Z,18.97
2023-01-04T02:49:29.023Z,18.57
2023-01-04T02:51:56.689Z,12.93
2023-01-04T02:54:30.935Z,12.20
2023-01-04T02:57:16.536Z,11.37
2023-01-04T03:00:08.010Z,10.17
2023-01-04T03:03:23.985Z,10.40
2023-01-04T03:06:25.648Z,10.20
2023-01-04T03:09:25.186Z,10.67
2023-01-04T03:12:27.460Z,11.00
2023-01-04T03:15:07.157Z,10.80
2023-01-04T03:17:44.483Z,10.27
2023-01-04T03:20:14.477Z,10.73
2023-01-04T03:23:11.458Z,14.57
2023-01-04T03:26:08.091Z,15.03
2023-01-04T03:28:56.987Z,13.97
2023-01-04T03:31:51.750Z,13.50
2023-01-04T03:34:38.570Z,12.57
2023-01-04T03:37:18.955Z,13.47
2023-01-04T03:40:19.872Z,12.93
2023-01-04T03:43:36.097Z,12.77
2023-01-04T03:46:51.574Z,11.60
2023-01-04T03:49:26.751Z,11.60
2023-01-04T03:51:58.750Z,12.93
2023-01-04T03:54:34.901Z,12.70
2023-01-04T03:57:04.252Z,13.27
2023-01-04T03:59:32.055Z,13.00
2023-01-04T04:01:59.622Z,13.30
2023-01-04T04:04:45.665Z,12.37
2023-01-04T04:07:32.308Z,12.53
2023-01-04T04:09:59.824Z,13.63
2023-01-04T04:12:27.329Z,14.73
2023-01-04T04:14:55.146Z,15.87
2023-01-04T04:17:22.648Z,15.43
2023-01-04T04:19:50.079Z,17.50
2023-01-04T04:22:17.551Z,17.43
2023-01-04T04:24:45.086Z,18.77
2023-01-04T04:27:12.561Z,18.33
2023-01-04T04:29:39.997Z,16.63
2023-01-04T04:32:07.581Z,15.33
2023-01-04T04:37:16.691Z,14.60
2023-01-04T04:39:44.132Z,14.67
2023-01-04T04:42:11.610Z,14.73
2023-01-04T04:44:39.109Z,17.20
2023-01-04T04:47:06.600Z,16.93
2023-01-04T04:49:34.109Z,19.73
2023-01-04T04:52:01.703Z,24.67
2023-01-04T04:54:29.263Z,26.93
2023-01-04T04:56:56.760Z,24.43
2023-01-04T04:59:24.261Z,26.53
2023-01-04T05:01:52.067Z,27.43
2023-01-04T05:04:19.878Z,29.33
2023-01-04T05:06:49.976Z,32.17
2023-01-04T05:09:17.679Z,33.80
2023-01-04T05:12:03.713Z,35.33
2023-01-04T05:14:31.205Z,34.80
2023-01-04T05:17:02.131Z,35.43
2023-01-04T05:19:29.724Z,32.87
2023-01-04T05:21:57.359Z,30.37
2023-01-04T05:24:24.923Z,28.37
2023-01-04T05:26:53.051Z,27.40
2023-01-04T05:29:39.057Z,28.60
2023-01-04T05:32:06.697Z,30.27
2023-01-04T05:34:34.155Z,38.20
2023-01-04T05:37:04.495Z,48.43
2023-01-04T05:39:32.061Z,42.63
2023-01-04T05:42:19.827Z,29.20
2023-01-04T05:44:47.377Z,30.10
2023-01-04T05:47:17.631Z,38.07
2023-01-04T05:49:45.401Z,37.37
2023-01-04T05:52:12.955Z,36.37
2023-01-04T05:54:40.570Z,35.37
2023-01-04T05:57:08.884Z,35.80
2023-01-04T05:59:41.507Z,40.70
2023-01-04T06:02:19.668Z,48.53
2023-01-04T06:04:51.491Z,45.07
2023-01-04T06:07:25.410Z,35.57
2023-01-04T06:09:53.642Z,31.47
2023-01-04T06:12:21.172Z,30.50
2023-01-04T06:14:48.724Z,33.30
2023-01-04T06:17:16.236Z,36.00
2023-01-04T06:19:43.977Z,37.23
2023-01-04T06:22:11.657Z,48.87
2023-01-04T06:24:39.188Z,64.97
2023-01-04T06:27:06.629Z,75.10
2023-01-04T06:29:34.256Z,75.60
2023-01-04T06:32:01.909Z,57.97
2023-01-04T06:34:31.350Z,59.07
2023-01-04T06:36:59.694Z,52.03
2023-01-04T06:39:27.290Z,50.13
2023-01-04T06:41:56.997Z,44.63
2023-01-04T06:44:29.520Z,36.20
2023-01-04T06:46:57.121Z,33.47
2023-01-04T06:49:24.519Z,30.47
2023-01-04T06:51:52.030Z,31.43
2023-01-04T06:54:19.461Z,35.83
2023-01-04T06:56:46.871Z,35.97
2023-01-04T06:59:15.681Z,34.83
2023-01-04T07:01:43.372Z,36.57
2023-01-04T07:04:19.754Z,36.10
2023-01-04T07:06:50.871Z,45.87
2023-01-04T07:09:19.124Z,48.47
2023-01-04T07:11:46.666Z,54.97
2023-01-04T07:14:14.094Z,44.67
2023-01-04T07:16:41.585Z,32.77
2023-01-04T07:19:09.840Z,35.43
2023-01-04T07:21:37.297Z,36.10
2023-01-04T07:24:04.900Z,30.57
2023-01-04T07:26:32.374Z,29.03
2023-01-04T07:29:14.777Z,31.40
2023-01-04T07:31:44.585Z,29.20
2023-01-04T07:34:12.992Z,25.60
2023-01-04T07:36:40.716Z,25.53
2023-01-04T07:39:11.167Z,26.03
2023-01-04T07:41:42.579Z,24.83
2023-01-04T07:44:12.457Z,25.10
2023-01-04T07:46:41.272Z,25.83
2023-01-04T07:49:17.769Z,22.93
2023-01-04T07:51:48.061Z,24.57
2023-01-04T07:54:17.480Z,20.27
2023-01-04T07:56:47.196Z,20.13
2023-01-04T07:59:17.185Z,21.70
2023-01-04T08:01:45.528Z,19.87
2023-01-04T08:04:15.018Z,19.53
2023-01-04T08:06:44.168Z,17.47
2023-01-04T08:09:12.792Z,15.10
2023-01-04T08:11:40.892Z,18.03
2023-01-04T08:14:10.809Z,21.70
2023-01-04T08:16:41.278Z,23.90
2023-01-04T08:19:17.417Z,23.63
2023-01-04T08:21:45.792Z,23.97
2023-01-04T08:24:19.202Z,24.37
2023-01-04T08:26:48.129Z,24.53
2023-01-04T08:29:16.039Z,25.07
2023-01-04T08:31:44.978Z,24.80
2023-01-04T08:34:12.544Z,23.67
2023-01-04T08:36:51.444Z,25.00
2023-01-04T08:39:19.372Z,24.13
2023-01-04T08:42:00.412Z,25.17
2023-01-04T08:44:35.036Z,27.10
2023-01-04T08:47:03.472Z,26.23
2023-01-04T08:49:31.235Z,27.07
2023-01-04T08:51:59.157Z,26.57
2023-01-04T08:54:26.818Z,27.67
2023-01-04T08:56:54.330Z,29.40
2023-01-04T08:59:24.479Z,27.40
2023-01-04T09:01:52.197Z,25.83
2023-01-04T09:04:20.021Z,26.47
2023-01-04T09:06:47.548Z,25.70
2023-01-04T09:09:16.446Z,26.27
2023-01-04T09:11:43.972Z,55.23
2023-01-04T09:14:13.820Z,36.27
2023-01-04T09:16:41.772Z,24.17
2023-01-04T09:19:09.294Z,26.90
2023-01-04T09:21:37.100Z,24.70
2023-01-04T09:24:04.985Z,22.97
2023-01-04T09:26:32.488Z,23.97
2023-01-04T09:28:59.974Z,19.03
2023-01-04T09:31:29.564Z,19.20
2023-01-04T09:34:15.938Z,19.03
2023-01-04T09:36:45.837Z,19.73
2023-01-04T09:39:21.864Z,19.47
2023-01-04T09:42:04.034Z,20.10
2023-01-04T09:47:50.082Z,21.13
2023-01-04T09:50:26.105Z,18.53
2023-01-04T09:53:43.085Z,14.10
2023-01-04T09:56:28.932Z,16.00
2023-01-04T09:58:58.587Z,13.73
2023-01-04T10:01:58.095Z,12.37
2023-01-04T10:04:48.504Z,12.97
2023-01-04T10:07:32.613Z,12.97
2023-01-04T10:10:01.614Z,13.43
2023-01-04T10:13:10.671Z,13.73
2023-01-04T10:16:44.070Z,12.90
2023-01-04T10:23:08.523Z,14.60
2023-01-04T10:26:12.314Z,14.83
2023-01-04T10:29:28.592Z,13.73
2023-01-04T10:32:02.832Z,17.67
2023-01-04T10:34:38.139Z,14.30
2023-01-04T10:37:34.200Z,18.30
2023-01-04T10:40:02.331Z,15.03
2023-01-04T10:42:48.646Z,13.97
2023-01-04T10:46:02.391Z,11.70
2023-01-04T10:48:52.341Z,15.33
2023-01-04T10:51:54.297Z,12.70
2023-01-04T10:54:50.679Z,10.90
2023-01-04T10:57:32.207Z,10.77
2023-01-04T11:00:32.732Z,11.20
2023-01-04T11:03:09.448Z,12.30
2023-01-04T11:06:03.202Z,11.67
2023-01-04T11:09:03.623Z,11.93
2023-01-04T11:11:37.853Z,13.30
2023-01-04T11:14:05.543Z,12.47
2023-01-04T11:16:33.210Z,11.80
2023-01-04T11:19:00.975Z,12.63
2023-01-04T11:21:34.647Z,12.03
2023-01-04T11:24:31.533Z,15.47
2023-01-04T11:26:56.243Z,14.27
2023-01-04T11:29:30.630Z,14.90
2023-01-04T11:32:07.115Z,14.47
2023-01-04T11:35:00.754Z,13.90
2023-01-04T11:37:33.804Z,14.43
2023-01-04T11:40:24.323Z,15.47
2023-01-04T11:43:17.775Z,12.60
2023-01-04T11:45:57.439Z,12.63
2023-01-04T11:48:35.840Z,15.20
2023-01-04T11:51:04.087Z,12.43
2023-01-04T11:53:38.826Z,10.80
2023-01-04T11:56:14.240Z,8.70
2023-01-04T11:58:44.140Z,8.07
2023-01-04T12:01:25.654Z,7.73
2023-01-04T12:03:53.225Z,9.23
2023-01-04T12:06:25.774Z,7.93
2023-01-04T12:08:53.393Z,8.07
2023-01-04T12:11:36.554Z,10.00
2023-01-04T12:14:09.770Z,10.10
2023-01-04T12:17:13.984Z,9.50
2023-01-04T12:19:43.763Z,7.03
2023-01-04T12:22:35.596Z,7.60
2023-01-04T12:25:35.653Z,7.03
2023-01-04T12:28:03.258Z,7.33
2023-01-04T12:30:46.344Z,7.07
2023-01-04T12:33:34.097Z,7.07
2023-01-04T12:36:12.142Z,6.70
2023-01-04T12:39:29.148Z,7.03
2023-01-04T12:42:03.642Z,7.40
2023-01-04T12:44:37.338Z,7.47
2023-01-04T12:47:49.415Z,8.10
2023-01-04T12:50:27.562Z,8.50
2023-01-04T12:53:19.877Z,7.90
2023-01-04T12:55:53.525Z,7.70
2023-01-04T12:58:58.182Z,8.87
2023-01-04T13:01:29.300Z,7.20
2023-01-04T13:04:21.716Z,7.17
2023-01-04T13:06:52.282Z,7.10
2023-01-04T13:09:24.903Z,7.50
2023-01-04T13:12:18.885Z,6.70
2023-01-04T13:14:55.246Z,7.13
2023-01-04T13:17:26.959Z,7.30
2023-01-04T13:19:55.362Z,7.47
2023-01-04T13:22:32.346Z,6.93
2023-01-04T13:25:04.787Z,6.57
2023-01-04T13:27:33.540Z,6.33
2023-01-04T13:30:03.404Z,7.28
2023-01-04T13:32:59.510Z,6.43
2023-01-04T13:35:24.117Z,6.20
2023-01-04T13:37:52.697Z,5.70
2023-01-04T13:40:24.520Z,6.10
2023-01-04T13:43:16.880Z,6.27
2023-01-04T13:46:05.481Z,5.77
2023-01-04T13:48:40.111Z,5.90
2023-01-04T13:51:32.101Z,5.97
2023-01-04T13:54:21.199Z,6.07
2023-01-04T13:56:55.197Z,6.13
2023-01-04T13:59:23.416Z,7.47
2023-01-04T14:01:51.676Z,6.00
2023-01-04T14:04:28.683Z,6.33
2023-01-04T14:06:59.685Z,6.53
2023-01-04T14:09:37.210Z,7.50
2023-01-04T14:12:20.165Z,6.77
2023-01-04T14:15:20.923Z,7.17
2023-01-04T14:17:55.720Z,7.00
2023-01-04T14:20:23.330Z,7.50
2023-01-04T14:22:56.340Z,7.30
2023-01-04T14:25:37.082Z,7.53
2023-01-04T14:28:20.107Z,7.50
2023-01-04T14:31:08.573Z,7.10
2023-01-04T14:33:41.855Z,7.53
2023-01-04T14:36:32.475Z,7.40
2023-01-04T14:39:06.504Z,7.70
2023-01-04T14:41:43.896Z,7.97
2023-01-04T14:44:21.643Z,8.40
2023-01-04T14:46:52.991Z,8.90
2023-01-04T14:49:22.225Z,8.97
2023-01-04T14:51:54.693Z,8.80
2023-01-04T14:54:27.443Z,8.93
2023-01-04T14:56:57.080Z,8.77
2023-01-04T14:59:26.657Z,8.10
2023-01-04T15:01:56.941Z,7.80
2023-01-04T15:04:26.627Z,8.50
2023-01-04T15:07:00.997Z,8.57
2023-01-04T15:09:30.290Z,8.60
2023-01-04T15:11:59.295Z,9.10
2023-01-04T15:14:26.903Z,8.77
2023-01-04T15:16:57.644Z,9.33
2023-01-04T15:19:25.209Z,9.50
2023-01-04T15:21:52.773Z,9.40
2023-01-04T15:24:20.929Z,9.77
2023-01-04T15:26:49.216Z,9.33
2023-01-04T15:29:16.744Z,8.70
2023-01-04T15:31:44.746Z,9.53
2023-01-04T15:34:16.287Z,10.13
2023-01-04T15:36:44.772Z,10.50
2023-01-04T15:39:15.085Z,10.13
2023-01-04T15:42:01.283Z,10.57
2023-01-04T15:44:32.071Z,12.43
2023-01-04T15:47:05.781Z,12.17
2023-01-04T15:49:33.300Z,11.77
2023-01-04T15:52:01.439Z,12.33
2023-01-04T15:54:29.411Z,12.10
2023-01-04T15:56:57.852Z,11.60
2023-01-04T15:59:25.917Z,12.00
2023-01-04T16:01:54.741Z,36.40
2023-01-04T16:04:22.730Z,22.53
2023-01-04T16:06:50.770Z,16.43
2023-01-04T16:09:18.691Z,13.67
2023-01-04T16:12:04.660Z,12.87
2023-01-04T16:14:32.635Z,12.07
2023-01-04T16:17:05.591Z,12.57
2023-01-04T16:19:34.338Z,12.80
2023-01-04T16:22:02.025Z,12.73
2023-01-04T16:25:08.885Z,13.67
2023-01-04T16:27:20.227Z,12.97
2023-01-04T16:29:52.485Z,13.27
2023-01-04T16:32:20.902Z,13.33
2023-01-04T16:34:51.019Z,22.70
2023-01-04T16:37:20.988Z,26.57
2023-01-04T16:40:08.209Z,34.53
2023-01-04T16:42:37.766Z,43.87
2023-01-04T16:45:07.727Z,30.33
2023-01-04T16:47:43.373Z,31.90
2023-01-04T16:50:15.275Z,26.07
2023-01-04T16:52:42.879Z,31.27
2023-01-04T16:55:11.267Z,51.43
2023-01-04T16:57:40.613Z,48.07
2023-01-04T17:00:10.064Z,39.73
2023-01-04T17:02:37.717Z,19.97
2023-01-04T17:05:08.081Z,17.33
2023-01-04T17:07:37.213Z,16.70
2023-01-04T17:10:05.967Z,15.30
2023-01-04T17:12:47.213Z,13.70
2023-01-04T17:18:04.845Z,28.13
2023-01-04T17:20:33.193Z,13.13
2023-01-04T17:23:00.776Z,12.80
2023-01-04T17:25:31.646Z,13.20
2023-01-04T17:27:59.251Z,12.50
2023-01-04T17:30:26.760Z,12.60
2023-01-04T17:32:54.393Z,12.53
2023-01-04T17:35:23.665Z,25.97
2023-01-04T17:37:55.628Z,59.30
2023-01-04T17:40:27.096Z,61.33
2023-01-04T17:42:54.713Z,37.53
2023-01-04T17:45:22.981Z,56.27
2023-01-04T17:47:51.657Z,50.60
2023-01-04T17:50:20.648Z,30.37
2023-01-04T17:52:52.801Z,24.30
2023-01-04T17:55:21.482Z,35.47
2023-01-04T17:57:49.196Z,33.60
2023-01-04T18:00:17.279Z,28.87
2023-01-04T18:02:45.963Z,29.83
2023-01-04T18:05:13.579Z,26.07
2023-01-04T18:07:41.273Z,21.67
2023-01-04T18:10:20.586Z,46.43
2023-01-04T18:12:48.894Z,34.37
2023-01-04T18:15:17.812Z,26.87
2023-01-04T18:17:48.108Z,37.80
2023-01-04T18:20:24.612Z,55.67
2023-01-04T18:22:54.531Z,32.07
2023-01-04T18:25:22.070Z,28.93
2023-01-04T18:27:50.692Z,32.47
2023-01-04T18:30:19.368Z,41.90
2023-01-04T18:32:48.875Z,30.10
2023-01-04T18:35:17.174Z,27.90
2023-01-04T18:37:45.898Z,46.00
2023-01-04T18:40:16.158Z,31.10
2023-01-04T18:42:50.229Z,20.47
2023-01-04T18:45:20.348Z,19.03
2023-01-04T18:47:48.552Z,14.47
2023-01-04T18:50:19.294Z,14.50
2023-01-04T18:52:47.912Z,24.40
2023-01-04T18:55:20.510Z,22.40
2023-01-04T18:57:51.169Z,14.47
2023-01-04T19:00:23.454Z,15.37
2023-01-04T19:02:53.803Z,15.47
2023-01-04T19:05:24.402Z,20.20
2023-01-04T19:07:56.640Z,21.07
2023-01-04T19:10:25.335Z,20.73
2023-01-04T19:12:52.862Z,19.30
2023-01-04T19:15:20.555Z,18.00
2023-01-04T19:17:48.467Z,19.97
2023-01-04T19:20:16.494Z,19.67
2023-01-04T19:22:44.012Z,18.57
2023-01-04T19:25:11.529Z,16.87
2023-01-04T19:27:40.228Z,17.20
2023-01-04T19:30:09.686Z,17.33
2023-01-04T19:32:37.258Z,19.23
2023-01-04T19:35:05.518Z,19.37
2023-01-04T19:37:34.515Z,18.63
2023-01-04T19:40:02.201Z,19.47
2023-01-04T19:42:30.520Z,18.97
2023-01-04T19:44:58.166Z,18.03
2023-01-04T19:47:25.698Z,17.63
2023-01-04T19:49:53.245Z,18.07
2023-01-04T19:52:20.852Z,18.37
2023-01-04T19:54:48.389Z,17.30
2023-01-04T19:57:15.957Z,18.73
2023-01-04T19:59:44.587Z,17.60
2023-01-04T20:02:36.157Z,18.00
2023-01-04T20:05:04.109Z,17.27
2023-01-04T20:07:33.649Z,18.20
2023-01-04T20:10:01.130Z,18.13
2023-01-04T20:12:28.778Z,17.70
2023-01-04T20:14:56.197Z,18.50
2023-01-04T20:17:27.534Z,17.80
2023-01-04T20:19:55.372Z,17.70
2023-01-04T20:22:22.975Z,17.33
2023-01-04T20:24:51.674Z,17.83
2023-01-04T20:27:29.126Z,18.93
2023-01-04T20:29:58.251Z,18.03
2023-01-04T20:32:26.410Z,18.23
2023-01-04T20:34:55.727Z,17.23
2023-01-04T20:37:25.846Z,17.33
2023-01-04T20:39:53.420Z,17.07
2023-01-04T20:42:40.735Z,16.67
2023-01-04T20:45:09.977Z,17.03
2023-01-04T20:47:38.675Z,16.10
2023-01-04T20:50:12.889Z,16.63
2023-01-04T20:52:40.438Z,16.63
2023-01-04T20:55:13.889Z,16.13
2023-01-04T20:57:45.428Z,16.63
2023-01-04T21:00:14.515Z,16.17
2023-01-04T21:02:42.671Z,16.70
2023-01-04T21:05:13.199Z,16.53
2023-01-04T21:07:41.625Z,15.60
2023-01-04T21:10:12.841Z,15.50
2023-01-04T21:12:41.725Z,15.60
2023-01-04T21:15:11.916Z,16.43
2023-01-04T21:17:39.636Z,16.40
2023-01-04T21:20:09.642Z,16.57
2023-01-04T21:22:40.472Z,16.57
2023-01-04T21:25:09.972Z,15.67
2023-01-04T21:27:40.000Z,15.60
2023-01-04T21:30:08.591Z,15.47
2023-01-04T21:32:36.163Z,14.90
2023-01-04T21:35:04.181Z,16.07
2023-01-04T21:37:32.367Z,17.23
2023-01-04T21:40:01.434Z,16.40
2023-01-04T21:42:31.751Z,17.57
2023-01-04T21:45:02.029Z,17.20
2023-01-04T21:47:33.834Z,17.87
2023-01-04T21:50:01.322Z,16.47
2023-01-04T21:52:28.828Z,16.93
2023-01-04T21:54:56.412Z,17.10
2023-01-04T21:57:23.989Z,17.50
2023-01-04T21:59:51.990Z,16.93
2023-01-04T22:02:20.848Z,16.73
2023-01-04T22:04:48.842Z,17.00
2023-01-04T22:07:16.383Z,16.50
2023-01-04T22:09:43.901Z,16.27
2023-01-04T22:12:11.878Z,14.90
2023-01-04T22:14:40.424Z,16.10
2023-01-04T22:17:07.972Z,16.33
2023-01-04T22:19:35.646Z,15.23
2023-01-04T22:22:03.184Z,14.60
2023-01-04T22:24:37.216Z,15.30
2023-01-04T22:27:05.585Z,15.00
2023-01-04T22:29:33.125Z,14.30
2023-01-04T22:32:01.811Z,14.53
2023-01-04T22:34:29.539Z,13.83
2023-01-04T22:36:57.270Z,14.80
2023-01-04T22:39:24.918Z,14.53
2023-01-04T22:41:52.376Z,14.00
2023-01-04T22:44:19.951Z,14.07
2023-01-04T22:46:48.105Z,13.77
2023-01-04T22:49:15.665Z,14.00
2023-01-04T22:51:43.139Z,14.60
2023-01-04T22:54:11.116Z,14.30
2023-01-04T22:56:38.645Z,13.93
2023-01-04T22:59:06.191Z,16.47
2023-01-04T23:01:34.547Z,15.10
2023-01-04T23:04:03.462Z,15.03
2023-01-04T23:06:32.679Z,14.60
2023-01-04T23:09:05.110Z,14.73
2023-01-04T23:11:35.147Z,14.67
2023-01-04T23:14:04.930Z,14.03
2023-01-04T23:16:33.703Z,18.83
2023-01-04T23:19:03.031Z,16.70
2023-01-04T23:21:31.894Z,17.10
2023-01-04T23:24:00.372Z,17.57
2023-01-04T23:26:31.129Z,14.53
2023-01-04T23:29:00.093Z,14.63
2023-01-04T23:31:31.273Z,15.67
2023-01-04T23:34:02.632Z,15.27
2023-01-04T23:36:35.325Z,20.60
2023-01-04T23:39:09.900Z,21.70
2023-01-04T23:41:47.185Z,17.53
2023-01-04T23:44:27.474Z,19.97
2023-01-04T23:47:01.624Z,19.67
2023-01-04T23:49:32.608Z,18.00
2023-01-04T23:52:01.212Z,19.40
2023-01-04T23:54:29.705Z,17.03
2023-01-04T23:56:57.746Z,18.03
2023-01-04T23:59:25.828Z,16.83
